createdAt,value
2019-04-20T00:01:31.964Z,11.50
2019-04-20T00:03:58.896Z,14.80
2019-04-20T00:06:31.670Z,13.53
2019-04-20T00:09:15.204Z,16.87
2019-04-20T00:11:51.714Z,13.73
2019-04-20T00:14:15.955Z,15.67
2019-04-20T00:16:41.939Z,18.37
2019-04-20T00:19:10.727Z,16.23
2019-04-20T00:21:58.606Z,15.33
2019-04-20T00:24:30.144Z,16.43
2019-04-20T00:27:13.595Z,20.03
2019-04-20T00:32:38.593Z,22.13
2019-04-20T00:35:02.128Z,21.43
2019-04-20T00:37:36.351Z,23.20
2019-04-20T00:43:24.730Z,22.97
2019-04-20T00:46:04.895Z,31.30
2019-04-20T00:48:33.754Z,29.53
2019-04-20T00:51:20.261Z,28.73
2019-04-20T00:53:34.188Z,30.07
2019-04-20T00:55:57.109Z,32.63
2019-04-20T00:58:33.391Z,27.17
2019-04-20T01:01:12.800Z,27.50
2019-04-20T01:03:44.615Z,30.30
2019-04-20T01:06:28.932Z,27.13
2019-04-20T01:08:42.757Z,25.53
2019-04-20T01:11:12.317Z,29.43
2019-04-20T01:13:58.862Z,37.40
2019-04-20T01:16:36.581Z,44.77
2019-04-20T01:18:56.256Z,58.40
2019-04-20T01:21:30.015Z,47.77
2019-04-20T01:24:01.692Z,74.50
2019-04-20T01:26:27.735Z,65.10
2019-04-20T01:29:08.910Z,96.07
2019-04-20T01:31:35.532Z,87.77
2019-04-20T01:34:32.515Z,92.67
2019-04-20T01:37:05.185Z,75.33
2019-04-20T01:39:55.419Z,87.03
2019-04-20T01:42:23.516Z,74.97
2019-04-20T01:47:45.258Z,95.40
2019-04-20T01:50:16.676Z,109.77
2019-04-20T01:52:50.807Z,88.73
2019-04-20T01:55:34.695Z,95.97
2019-04-20T01:58:11.906Z,93.03
2019-04-20T02:00:40.729Z,117.33
2019-04-20T02:03:13.081Z,160.37
2019-04-20T02:05:43.348Z,159.27
2019-04-20T02:08:16.710Z,158.23
2019-04-20T02:10:49.072Z,172.10
2019-04-20T02:13:13.484Z,193.23
2019-04-20T02:15:48.595Z,194.47
2019-04-20T02:18:29.704Z,223.63
2019-04-20T02:21:00.244Z,226.77
2019-04-20T02:23:27.412Z,221.47
2019-04-20T02:25:44.486Z,218.77
2019-04-20T02:28:27.247Z,196.97
2019-04-20T02:34:07.015Z,197.80
2019-04-20T02:39:37.900Z,202.17
2019-04-20T02:44:34.018Z,192.90
2019-04-20T02:47:14.840Z,185.03
2019-04-20T02:54:26.034Z,165.50
2019-04-20T02:57:07.287Z,169.43
2019-04-20T02:59:54.295Z,169.33
2019-04-20T03:01:51.763Z,157.20
2019-04-20T03:04:06.425Z,147.70
2019-04-20T03:06:46.707Z,135.63
2019-04-20T03:09:28.408Z,136.03
2019-04-20T03:14:22.830Z,130.03
2019-04-20T03:16:50.414Z,120.00
2019-04-20T03:19:20.761Z,127.13
2019-04-20T03:22:24.515Z,116.13
2019-04-20T03:25:18.064Z,104.37
2019-04-20T03:27:55.268Z,95.47
2019-04-20T03:31:18.444Z,98.30
2019-04-20T03:35:43.557Z,93.67
2019-04-20T03:38:07.570Z,84.73
2019-04-20T03:40:53.166Z,87.87
2019-04-20T03:43:15.994Z,89.17
2019-04-20T03:45:54.372Z,93.77
2019-04-20T03:48:34.615Z,92.83
2019-04-20T03:51:34.391Z,95.53
2019-04-20T03:54:13.773Z,85.20
2019-04-20T03:56:54.760Z,87.10
2019-04-20T03:59:27.945Z,76.20
2019-04-20T04:02:22.445Z,86.90
2019-04-20T04:04:38.891Z,78.80
2019-04-20T04:06:56.175Z,79.87
2019-04-20T04:09:35.305Z,55.20
2019-04-20T04:12:07.714Z,69.93
2019-04-20T04:14:22.434Z,64.17
2019-04-20T04:16:55.680Z,72.57
2019-04-20T04:19:28.455Z,70.83
2019-04-20T04:22:04.136Z,80.13
2019-04-20T04:24:31.641Z,89.17
2019-04-20T04:27:05.874Z,88.87
2019-04-20T04:29:43.015Z,84.30
2019-04-20T04:32:25.523Z,68.03
2019-04-20T04:34:45.907Z,76.13
2019-04-20T04:37:13.466Z,64.37
2019-04-20T04:39:47.436Z,55.30
2019-04-20T04:42:16.918Z,63.53
2019-04-20T04:44:37.759Z,73.50
2019-04-20T04:46:59.530Z,72.83
2019-04-20T04:49:31.372Z,59.23
2019-04-20T04:52:01.963Z,48.07
2019-04-20T04:54:34.666Z,56.60
2019-04-20T04:56:56.676Z,64.97
2019-04-20T04:59:25.683Z,76.93
2019-04-20T05:01:56.792Z,26.90
2019-04-20T05:04:49.855Z,51.03
2019-04-20T05:07:09.413Z,68.73
2019-04-20T05:09:27.582Z,15.43
2019-04-20T05:12:03.964Z,12.50
2019-04-20T05:14:41.865Z,13.47
2019-04-20T05:17:11.682Z,12.60
2019-04-20T05:19:47.514Z,10.63
2019-04-20T05:22:20.605Z,11.73
2019-04-20T05:24:58.028Z,10.73
2019-04-20T05:27:36.320Z,10.43
2019-04-20T05:29:42.819Z,10.60
2019-04-20T05:32:16.352Z,11.17
2019-04-20T05:35:06.703Z,9.70
2019-04-20T05:37:33.277Z,9.70
2019-04-20T05:40:04.966Z,9.50
2019-04-20T05:42:35.588Z,9.63
2019-04-20T05:45:01.961Z,10.33
2019-04-20T05:47:36.200Z,9.20
2019-04-20T05:49:56.957Z,9.80
2019-04-20T05:55:04.116Z,9.67
2019-04-20T05:57:39.715Z,9.37
2019-04-20T06:00:12.605Z,10.23
2019-04-20T06:02:33.254Z,9.73
2019-04-20T06:05:10.859Z,8.73
2019-04-20T06:07:37.224Z,9.20
2019-04-20T06:10:05.827Z,9.50
2019-04-20T06:12:36.290Z,9.77
2019-04-20T06:15:00.330Z,9.37
2019-04-20T06:17:42.261Z,9.47
2019-04-20T06:20:15.557Z,8.97
2019-04-20T06:25:31.299Z,8.97
2019-04-20T06:27:45.106Z,8.63
2019-04-20T06:30:12.171Z,9.85
2019-04-20T06:33:07.799Z,8.70
2019-04-20T06:35:56.109Z,8.10
2019-04-20T06:38:10.774Z,8.57
2019-04-20T06:43:09.053Z,9.13
2019-04-20T06:45:35.024Z,9.23
2019-04-20T06:48:06.206Z,10.20
2019-04-20T06:50:29.180Z,8.93
2019-04-20T06:53:16.289Z,9.60
2019-04-20T06:55:42.964Z,9.13
2019-04-20T06:58:12.684Z,9.20
2019-04-20T07:00:42.068Z,9.23
2019-04-20T07:03:18.477Z,10.57
2019-04-20T07:05:40.640Z,10.20
2019-04-20T07:08:27.660Z,9.53
2019-04-20T07:10:43.953Z,10.90
2019-04-20T07:13:06.843Z,10.70
2019-04-20T07:15:42.757Z,9.00
2019-04-20T07:18:26.184Z,8.30
2019-04-20T07:20:55.632Z,8.63
2019-04-20T07:23:32.933Z,8.40
2019-04-20T07:26:02.066Z,7.73
2019-04-20T07:28:32.759Z,8.00
2019-04-20T07:30:56.940Z,8.80
2019-04-20T07:33:26.959Z,8.50
2019-04-20T07:35:55.979Z,7.10
2019-04-20T07:38:34.347Z,9.93
2019-04-20T07:40:59.997Z,7.33
2019-04-20T07:43:34.848Z,7.10
2019-04-20T07:46:02.766Z,7.10
2019-04-20T07:48:30.874Z,5.97
2019-04-20T07:50:55.476Z,6.30
2019-04-20T07:53:30.546Z,6.67
2019-04-20T07:56:25.600Z,6.40
2019-04-20T07:58:49.219Z,6.30
2019-04-20T08:02:01.205Z,5.70
2019-04-20T08:04:47.120Z,6.47
2019-04-20T08:07:07.157Z,6.60
2019-04-20T08:09:42.354Z,5.77
2019-04-20T08:12:51.620Z,6.07
2019-04-20T08:15:25.868Z,5.50
2019-04-20T08:20:11.680Z,5.90
2019-04-20T08:22:50.276Z,5.60
2019-04-20T08:25:08.823Z,6.43
2019-04-20T08:27:27.564Z,10.33
2019-04-20T08:30:18.521Z,7.80
2019-04-20T08:32:50.582Z,6.90
2019-04-20T08:35:32.037Z,6.43
2019-04-20T08:38:14.480Z,5.90
2019-04-20T08:40:28.305Z,6.40
2019-04-20T08:43:06.159Z,6.30
2019-04-20T08:45:34.899Z,6.43
2019-04-20T08:48:09.833Z,5.77
2019-04-20T08:50:29.933Z,5.40
2019-04-20T08:53:15.920Z,5.90
2019-04-20T08:55:29.749Z,5.90
2019-04-20T08:57:44.379Z,5.60
2019-04-20T09:00:28.871Z,5.33
2019-04-20T09:05:52.526Z,5.20
2019-04-20T09:08:17.773Z,5.55
2019-04-20T09:11:02.693Z,5.17
2019-04-20T09:13:21.137Z,5.00
2019-04-20T09:15:44.651Z,5.20
2019-04-20T09:18:34.373Z,5.03
2019-04-20T09:21:06.790Z,5.00
2019-04-20T09:23:49.685Z,4.50
2019-04-20T09:26:20.191Z,4.60
2019-04-20T09:29:04.089Z,4.40
2019-04-20T09:31:39.552Z,5.53
2019-04-20T09:34:20.543Z,4.47
2019-04-20T09:37:09.598Z,5.07
2019-04-20T09:39:32.667Z,4.63
2019-04-20T09:42:01.436Z,3.77
2019-04-20T09:44:31.417Z,4.23
2019-04-20T09:50:33.677Z,6.80
2019-04-20T09:53:02.445Z,4.13
2019-04-20T09:55:29.424Z,4.67
2019-04-20T09:58:02.735Z,7.30
2019-04-20T10:00:38.335Z,4.97
2019-04-20T10:02:54.606Z,4.80
2019-04-20T10:05:25.299Z,4.67
2019-04-20T10:07:58.725Z,4.80
2019-04-20T10:10:33.953Z,4.50
2019-04-20T10:13:01.035Z,4.63
2019-04-20T10:15:31.362Z,4.87
2019-04-20T10:18:00.020Z,4.50
2019-04-20T10:20:33.084Z,4.67
2019-04-20T10:23:01.040Z,4.03
2019-04-20T10:25:30.842Z,3.93
2019-04-20T10:28:01.226Z,4.20
2019-04-20T10:30:30.611Z,3.90
2019-04-20T10:32:59.570Z,4.27
2019-04-20T10:35:28.027Z,3.67
2019-04-20T10:37:59.749Z,3.70
2019-04-20T10:40:42.700Z,4.20
2019-04-20T10:43:01.039Z,6.30
2019-04-20T10:45:28.904Z,7.17
2019-04-20T10:47:57.447Z,4.83
2019-04-20T10:50:29.291Z,3.70
2019-04-20T10:52:59.632Z,10.27
2019-04-20T10:55:29.358Z,4.37
2019-04-20T10:57:59.713Z,3.03
2019-04-20T11:00:39.704Z,3.67
2019-04-20T11:03:10.010Z,3.93
2019-04-20T11:05:42.573Z,3.63
2019-04-20T11:08:12.769Z,3.97
2019-04-20T11:10:55.397Z,3.97
2019-04-20T11:22:32.642Z,3.17
2019-04-20T11:25:02.209Z,3.10
2019-04-20T11:27:34.126Z,3.93
2019-04-20T11:30:02.741Z,3.57
2019-04-20T11:32:33.865Z,3.27
2019-04-20T11:35:11.074Z,3.80
2019-04-20T11:37:35.179Z,3.90
2019-04-20T11:40:06.965Z,3.40
2019-04-20T11:42:38.039Z,3.53
2019-04-20T11:45:08.866Z,3.40
2019-04-20T11:47:39.758Z,3.90
2019-04-20T11:50:13.759Z,3.67
2019-04-20T11:52:47.483Z,3.80
2019-04-20T11:55:16.016Z,3.50
2019-04-20T11:57:45.317Z,3.60
2019-04-20T12:00:19.186Z,2.80
2019-04-20T12:03:09.581Z,3.40
2019-04-20T12:05:38.103Z,3.60
2019-04-20T12:11:27.804Z,3.50
2019-04-20T12:13:46.838Z,3.73
2019-04-20T12:16:17.229Z,3.67
2019-04-20T12:18:56.862Z,3.40
2019-04-20T12:21:26.939Z,3.60
2019-04-20T12:23:56.175Z,3.50
2019-04-20T12:26:31.077Z,3.60
2019-04-20T12:29:03.464Z,3.23
2019-04-20T12:31:31.589Z,3.30
2019-04-20T12:34:00.241Z,3.30
2019-04-20T12:36:30.153Z,3.43
2019-04-20T12:39:01.231Z,3.13
2019-04-20T12:41:39.484Z,3.33
2019-04-20T12:44:03.891Z,3.40
2019-04-20T12:46:34.042Z,3.90
2019-04-20T12:49:05.455Z,3.47
2019-04-20T12:51:48.001Z,3.53
2019-04-20T12:57:08.929Z,3.40
2019-04-20T12:59:39.257Z,3.23
2019-04-20T13:02:11.357Z,3.30
2019-04-20T13:04:41.612Z,3.30
2019-04-20T13:07:10.552Z,3.73
2019-04-20T13:09:42.084Z,3.97
2019-04-20T13:12:19.328Z,3.07
2019-04-20T13:14:58.223Z,3.47
2019-04-20T13:17:28.246Z,2.97
2019-04-20T13:19:57.510Z,3.27
2019-04-20T13:22:28.678Z,3.50
2019-04-20T13:25:05.264Z,3.47
2019-04-20T13:27:34.619Z,3.10
2019-04-20T13:30:07.140Z,3.13
2019-04-20T13:32:41.437Z,3.40
2019-04-20T13:35:12.311Z,3.73
2019-04-20T13:37:42.328Z,3.60
2019-04-20T13:40:13.164Z,4.10
2019-04-20T13:42:41.761Z,3.50
2019-04-20T13:45:12.915Z,3.77
2019-04-20T13:47:43.188Z,4.00
2019-04-20T13:50:14.342Z,3.80
2019-04-20T13:52:44.717Z,3.60
2019-04-20T13:55:13.636Z,3.33
2019-04-20T13:57:47.974Z,3.60
2019-04-20T14:00:24.293Z,4.77
2019-04-20T14:03:00.543Z,3.43
2019-04-20T14:05:33.046Z,3.47
2019-04-20T14:08:15.608Z,3.60
2019-04-20T14:10:49.254Z,4.00
2019-04-20T14:13:22.087Z,3.80
2019-04-20T14:15:51.263Z,3.70
2019-04-20T14:18:25.015Z,3.60
2019-04-20T14:20:58.339Z,3.67
2019-04-20T14:23:30.977Z,3.67
2019-04-20T14:26:02.982Z,3.90
2019-04-20T14:28:33.211Z,3.97
2019-04-20T14:31:03.783Z,3.87
2019-04-20T14:33:34.782Z,3.90
2019-04-20T14:36:05.804Z,3.90
2019-04-20T14:38:36.171Z,4.13
2019-04-20T14:43:34.408Z,3.57
2019-04-20T14:46:05.038Z,3.90
2019-04-20T14:48:34.666Z,4.23
2019-04-20T14:51:03.699Z,3.93
2019-04-20T14:53:33.636Z,4.03
2019-04-20T14:56:02.696Z,3.80
2019-04-20T14:58:49.334Z,3.90
2019-04-20T15:01:27.384Z,4.03
2019-04-20T15:04:02.827Z,3.93
2019-04-20T15:06:27.480Z,4.00
2019-04-20T15:08:56.712Z,3.47
2019-04-20T15:11:25.401Z,3.47
2019-04-20T15:13:56.533Z,4.00
2019-04-20T15:16:24.667Z,3.87
2019-04-20T15:19:00.904Z,3.43
2019-04-20T15:21:31.421Z,4.30
2019-04-20T15:24:01.627Z,3.30
2019-04-20T15:26:30.750Z,3.97
2019-04-20T15:29:00.019Z,4.63
2019-04-20T15:31:30.122Z,4.27
2019-04-20T15:33:59.301Z,4.17
2019-04-20T15:36:28.496Z,4.23
2019-04-20T15:38:57.411Z,4.00
2019-04-20T15:41:27.464Z,4.30
2019-04-20T15:43:57.466Z,4.13
2019-04-20T15:46:27.619Z,4.10
2019-04-20T15:48:57.694Z,4.67
2019-04-20T15:51:27.824Z,4.20
2019-04-20T15:56:26.862Z,5.27
2019-04-20T15:58:56.655Z,4.30
2019-04-20T16:01:28.325Z,4.00
2019-04-20T16:04:03.635Z,4.00
2019-04-20T16:06:34.906Z,4.93
2019-04-20T16:09:08.410Z,92.30
2019-04-20T16:11:39.246Z,4.53
2019-04-20T16:14:09.040Z,90.73
2019-04-20T16:16:38.617Z,6.30
2019-04-20T16:19:13.630Z,3.67
2019-04-20T16:21:39.559Z,5.97
2019-04-20T16:24:10.942Z,4.23
2019-04-20T16:26:41.960Z,6.13
2019-04-20T16:29:11.564Z,5.43
2019-04-20T16:31:44.935Z,4.80
2019-04-20T16:34:13.896Z,5.73
2019-04-20T16:36:44.532Z,5.27
2019-04-20T16:39:14.670Z,4.70
2019-04-20T16:41:44.449Z,4.20
2019-04-20T16:44:13.498Z,4.13
2019-04-20T16:46:42.473Z,4.50
2019-04-20T16:49:12.765Z,4.00
2019-04-20T16:51:43.048Z,4.77
2019-04-20T16:54:12.159Z,4.60
2019-04-20T16:56:42.579Z,18.13
2019-04-20T16:59:15.268Z,8.37
2019-04-20T17:01:46.517Z,4.70
2019-04-20T17:04:21.215Z,4.73
2019-04-20T17:06:55.933Z,3.80
2019-04-20T17:09:26.169Z,3.70
2019-04-20T17:11:54.720Z,5.10
2019-04-20T17:14:23.948Z,4.57
2019-04-20T17:16:55.993Z,5.13
2019-04-20T17:19:27.893Z,5.30
2019-04-20T17:21:57.198Z,4.60
2019-04-20T17:24:25.600Z,4.37
2019-04-20T17:27:06.296Z,4.40
2019-04-20T17:29:47.232Z,5.60
2019-04-20T17:32:19.277Z,4.87
2019-04-20T17:35:03.976Z,5.65
2019-04-20T17:37:20.504Z,5.60
2019-04-20T17:40:12.973Z,4.73
2019-04-20T17:42:38.800Z,4.83
2019-04-20T17:45:00.831Z,5.10
2019-04-20T17:47:44.839Z,4.10
2019-04-20T17:50:15.067Z,4.33
2019-04-20T17:52:47.494Z,5.23
2019-04-20T17:54:57.712Z,6.70
2019-04-20T17:57:26.827Z,7.50
2019-04-20T18:00:07.675Z,6.43
2019-04-20T18:02:58.900Z,5.80
2019-04-20T18:05:33.828Z,5.30
2019-04-20T18:08:08.104Z,6.13
2019-04-20T18:10:31.816Z,4.70
2019-04-20T18:12:49.737Z,5.30
2019-04-20T18:15:34.874Z,5.10
2019-04-20T18:18:12.377Z,10.33
2019-04-20T18:20:43.340Z,21.03
2019-04-20T18:23:13.021Z,9.23
2019-04-20T18:26:06.130Z,8.90
2019-04-20T18:28:24.845Z,8.23
2019-04-20T18:30:52.590Z,7.40
2019-04-20T18:33:18.858Z,7.67
2019-04-20T18:35:48.923Z,7.47
2019-04-20T18:38:18.481Z,5.50
2019-04-20T18:40:56.031Z,5.67
2019-04-20T18:43:22.710Z,6.07
2019-04-20T18:46:08.135Z,6.17
2019-04-20T18:48:45.186Z,5.63
2019-04-20T18:50:53.659Z,5.90
2019-04-20T18:53:31.850Z,5.20
2019-04-20T18:55:56.027Z,6.40
2019-04-20T18:58:24.897Z,5.43
2019-04-20T19:00:55.387Z,5.20
2019-04-20T19:03:32.288Z,5.33
2019-04-20T19:05:55.855Z,5.13
2019-04-20T19:08:31.189Z,5.80
2019-04-20T19:11:01.713Z,7.10
2019-04-20T19:13:34.148Z,5.43
2019-04-20T19:16:15.331Z,6.67
2019-04-20T19:18:50.774Z,5.40
2019-04-20T19:21:06.873Z,5.70
2019-04-20T19:23:40.533Z,6.53
2019-04-20T19:26:11.898Z,5.40
2019-04-20T19:28:42.609Z,5.27
2019-04-20T19:31:19.465Z,5.73
2019-04-20T19:34:01.862Z,5.77
2019-04-20T19:36:19.880Z,5.37
2019-04-20T19:38:52.302Z,5.23
2019-04-20T19:41:25.457Z,4.80
2019-04-20T19:43:53.244Z,5.60
2019-04-20T19:48:52.675Z,5.00
2019-04-20T19:51:35.771Z,5.30
2019-04-20T19:54:09.478Z,5.70
2019-04-20T19:56:33.689Z,5.67
2019-04-20T19:58:59.503Z,4.77
2019-04-20T20:01:15.703Z,5.57
2019-04-20T20:03:50.329Z,5.97
2019-04-20T20:06:28.184Z,11.23
2019-04-20T20:09:06.735Z,6.23
2019-04-20T20:11:36.924Z,5.47
2019-04-20T20:14:05.906Z,5.40
2019-04-20T20:17:12.895Z,4.83
2019-04-20T20:19:44.649Z,4.33
2019-04-20T20:22:09.234Z,4.77
2019-04-20T20:24:33.365Z,5.10
2019-04-20T20:27:20.704Z,5.53
2019-04-20T20:30:11.967Z,6.03
2019-04-20T20:32:49.155Z,6.03
2019-04-20T20:35:13.982Z,6.17
2019-04-20T20:37:44.750Z,4.87
2019-04-20T20:40:24.821Z,5.70
2019-04-20T20:42:56.344Z,6.10
2019-04-20T20:45:26.251Z,5.47
2019-04-20T20:48:12.985Z,5.83
2019-04-20T20:51:02.155Z,5.33
2019-04-20T20:53:46.947Z,5.70
2019-04-20T20:56:24.377Z,5.20
2019-04-20T20:59:26.921Z,5.27
2019-04-20T21:01:52.404Z,5.90
2019-04-20T21:04:15.222Z,5.60
2019-04-20T21:06:48.704Z,5.33
2019-04-20T21:09:25.647Z,5.90
2019-04-20T21:12:01.405Z,5.80
2019-04-20T21:14:32.832Z,5.20
2019-04-20T21:17:05.005Z,4.97
2019-04-20T21:20:05.388Z,4.93
2019-04-20T21:22:40.325Z,5.50
2019-04-20T21:24:52.977Z,5.33
2019-04-20T21:27:23.926Z,5.07
2019-04-20T21:30:17.190Z,5.70
2019-04-20T21:32:43.724Z,4.93
2019-04-20T21:35:14.502Z,5.47
2019-04-20T21:37:52.554Z,5.10
2019-04-20T21:40:23.171Z,5.63
2019-04-20T21:42:51.712Z,5.80
2019-04-20T21:45:24.858Z,5.23
2019-04-20T21:47:52.589Z,6.37
2019-04-20T21:50:53.284Z,6.50
2019-04-20T21:53:27.937Z,5.80
2019-04-20T21:56:05.952Z,5.30
2019-04-20T22:01:31.704Z,4.90
2019-04-20T22:03:54.582Z,5.60
2019-04-20T22:06:26.641Z,5.43
2019-04-20T22:09:01.091Z,5.30
2019-04-20T22:11:35.756Z,5.20
2019-04-20T22:17:00.314Z,5.27
2019-04-20T22:19:38.750Z,5.23
2019-04-20T22:22:22.364Z,5.87
2019-04-20T22:24:59.826Z,6.50
2019-04-20T22:27:21.100Z,6.07
2019-04-20T22:29:50.191Z,5.53
2019-04-20T22:32:25.855Z,5.70
2019-04-20T22:35:03.082Z,5.53
2019-04-20T22:37:33.139Z,5.70
2019-04-20T22:40:11.785Z,5.40
2019-04-20T22:42:46.572Z,6.17
2019-04-20T22:45:17.235Z,5.37
2019-04-20T22:48:01.337Z,5.97
2019-04-20T22:50:46.109Z,6.07
2019-04-20T22:53:17.985Z,5.67
2019-04-20T22:56:04.521Z,5.57
2019-04-20T22:58:23.450Z,6.20
2019-04-20T23:01:23.282Z,6.07
2019-04-20T23:03:41.139Z,5.50
2019-04-20T23:06:32.017Z,5.17
2019-04-20T23:09:16.888Z,5.83
2019-04-20T23:12:08.075Z,5.57
2019-04-20T23:14:42.430Z,6.63
2019-04-20T23:17:26.924Z,6.53
2019-04-20T23:20:03.230Z,6.50
2019-04-20T23:22:40.885Z,7.80
2019-04-20T23:25:27.117Z,5.60
2019-04-20T23:28:10.186Z,6.20
2019-04-20T23:31:02.571Z,5.93
2019-04-20T23:33:31.747Z,21.17
2019-04-20T23:36:14.544Z,10.47
2019-04-20T23:38:49.949Z,7.27
2019-04-20T23:41:37.636Z,7.83
2019-04-20T23:44:39.482Z,6.83
2019-04-20T23:50:05.993Z,8.10
2019-04-20T23:52:42.635Z,8.43
2019-04-20T23:54:57.235Z,6.70
2019-04-20T23:57:26.033Z,6.10
